Time;durP1;ratioP1;P1;durP2;ratioP2;P2;SDS_P1;SDS_P2;PMS_P1;PMS_P2;Temp;Humidity;BMP_temperature;BMP_pressure;BME280_temperature;BME280_humidity;BME280_pressure;Samples;Min_cycle;Max_cycle;Signal;HPM_P1;HPM_P2
2021/12/23 05:24:17;;;;;;;;;;;;;;;1.97;100.00;99098.81;4949096;23;19968;-66
2021/12/23 05:26:44;;;;;;;;;;;;;;;1.98;100.00;99098.47;4880667;29;20376;-66
2021/12/23 05:29:12;;;;;;;;;;;;;;;1.99;100.00;99100.09;4880044;29;20270;-66
2021/12/23 05:31:39;;;;;;;;;;;;;;;2.00;100.00;99104.47;4880064;29;19965;-67
2021/12/23 05:34:06;;;;;;;;;;;;;;;2.03;100.00;99105.78;4881198;29;19953;-67
2021/12/23 05:36:34;;;;;;;;;;;;;;;2.04;100.00;99110.16;4881481;29;19968;-66
2021/12/23 05:39:02;;;;;;;;;;;;;;;2.12;100.00;99103.03;4864200;29;19973;-65
2021/12/23 05:41:30;;;;;;;;;;;;;;;2.08;100.00;99107.59;4878559;29;19962;-64
2021/12/23 05:43:58;;;;;;;;;;;;;;;2.13;100.00;99097.19;4880745;29;19952;-65
2021/12/23 05:46:26;;;;;;;;;;;;;;;2.12;100.00;99095.59;4880427;29;19957;-66
2021/12/23 05:48:53;;;;;;;;;;;;;;;2.10;100.00;99083.25;4898335;29;19984;-66
2021/12/23 05:51:20;;;;;;;;;;;;;;;2.09;100.00;99087.94;4895440;29;19969;-66
2021/12/23 05:53:48;;;;;;;;;;;;;;;1.99;100.00;99088.25;4881469;29;19952;-66
2021/12/23 05:56:15;;;;;;;;;;;;;;;2.02;100.00;99081.28;4880650;29;19953;-66
2021/12/23 05:58:43;;;;;;;;;;;;;;;1.97;100.00;99085.00;4881050;29;20362;-66
2021/12/23 06:01:10;;;;;;;;;;;;;;;1.96;100.00;99086.94;4881147;29;19952;-67
2021/12/23 06:03:39;;;;;;;;;;;;;;;2.00;100.00;99079.66;4873972;29;20222;-67
2021/12/23 06:06:06;;;;;;;;;;;;;;;2.00;100.00;99074.13;4870693;29;19961;-66
2021/12/23 06:08:36;;;;;;;;;;;;;;;2.05;100.00;99080.63;4864249;29;19984;-66
2021/12/23 06:11:03;;;;;;;;;;;;;;;2.06;100.00;99072.03;4870025;29;19963;-66
2021/12/23 06:13:30;;;;;;;;;;;;;;;2.04;100.00;99081.75;4875004;29;20349;-66
2021/12/23 06:15:58;;;;;;;;;;;;;;;2.00;100.00;99067.81;4880297;29;19971;-66
2021/12/23 06:18:25;;;;;;;;;;;;;;;1.97;100.00;99072.03;4865066;29;19961;-67
2021/12/23 06:20:52;;;;;;;;;;;;;;;2.00;100.00;99074.13;4867037;29;19977;-66
2021/12/23 06:23:20;;;;;;;;;;;;;;;2.04;100.00;99076.25;4889083;29;19981;-66
2021/12/23 06:25:47;;;;;;;;;;;;;;;2.02;100.00;99068.31;4880544;29;20373;-66
2021/12/23 06:28:14;;;;;;;;;;;;;;;1.99;100.00;99061.50;4880110;29;19970;-66
2021/12/23 06:30:42;;;;;;;;;;;;;;;1.95;100.00;99066.03;4880220;29;19955;-66
2021/12/23 06:33:11;;;;;;;;;;;;;;;1.99;100.00;99069.75;4880234;29;19969;-66
2021/12/23 06:35:38;;;;;;;;;;;;;;;2.07;100.00;99070.91;4879853;29;19965;-66
2021/12/23 06:38:07;;;;;;;;;;;;;;;2.06;100.00;99071.22;4876510;29;19956;-66
2021/12/23 06:40:35;;;;;;;;;;;;;;;2.08;100.00;99064.25;4880689;29;20351;-66
2021/12/23 06:43:02;;;;;;;;;;;;;;;2.08;100.00;99075.28;4880221;29;19963;-66
2021/12/23 06:45:29;;;;;;;;;;;;;;;2.09;100.00;99070.56;4878990;29;19956;-66
2021/12/23 06:47:57;;;;;;;;;;;;;;;2.17;100.00;99075.28;4880485;29;20368;-66
2021/12/23 06:50:24;;;;;;;;;;;;;;;2.11;100.00;99082.09;4879987;29;20061;-66
2021/12/23 06:52:51;;;;;;;;;;;;;;;2.14;100.00;99073.19;4879458;29;19965;-66
2021/12/23 06:55:19;;;;;;;;;;;;;;;2.17;100.00;99084.38;4879262;29;20655;-66
2021/12/23 06:57:53;;;;;;;;;;;;;;;2.26;100.00;99073.34;4879225;29;19957;-66
2021/12/23 07:00:21;;;;;;;;;;;;;;;2.24;100.00;99067.34;4887227;29;19975;-66
2021/12/23 07:02:48;;;;;;;;;;;;;;;2.29;100.00;99064.41;4879979;29;19965;-67
2021/12/23 07:05:16;;;;;;;;;;;;;;;2.30;100.00;99066.06;4881876;29;19962;-67
2021/12/23 07:08:03;;;;;;;;;;;;;;;2.26;100.00;99052.09;4872153;29;19958;-66
2021/12/23 07:10:33;;;;;;;;;;;;;;;2.24;100.00;99057.13;4869347;29;19957;-66
2021/12/23 07:13:01;;;;;;;;;;;;;;;2.25;100.00;99063.47;4878551;29;19970;-66
2021/12/23 07:15:28;;;;;;;;;;;;;;;2.25;100.00;99072.53;4878608;29;19970;-66
2021/12/23 07:17:56;;;;;;;;;;;;;;;2.24;100.00;99065.41;4879363;29;20228;-66
2021/12/23 07:20:25;;;;;;;;;;;;;;;2.27;100.00;99066.69;4879652;29;20044;-66
2021/12/23 07:22:52;;;;;;;;;;;;;;;2.26;100.00;99056.78;4879403;29;19985;-66
2021/12/23 07:25:20;;;;;;;;;;;;;;;2.29;100.00;99059.72;4851475;29;20371;-67
2021/12/23 07:27:47;;;;;;;;;;;;;;;2.29;100.00;99064.41;4860183;29;19959;-67
2021/12/23 07:30:16;;;;;;;;;;;;;;;2.35;100.00;99055.63;4860213;29;19968;-66
2021/12/23 07:32:44;;;;;;;;;;;;;;;2.35;100.00;99041.03;4860892;29;20238;-66
2021/12/23 07:35:12;;;;;;;;;;;;;;;2.38;100.00;99046.72;4860411;29;19984;-66
2021/12/23 07:37:42;;;;;;;;;;;;;;;2.38;100.00;99040.38;4859982;29;19960;-66
2021/12/23 07:40:13;;;;;;;;;;;;;;;2.40;100.00;99044.44;4851242;29;19970;-66
2021/12/23 07:42:52;;;;;;;;;;;;;;;2.40;100.00;99032.59;4876914;29;19961;-66
2021/12/23 07:45:21;;;;;;;;;;;;;;;2.41;100.00;99034.22;4878432;29;20262;-66
2021/12/23 07:47:48;;;;;;;;;;;;;;;2.43;100.00;99042.97;4866316;29;19963;-66
2021/12/23 07:50:15;;;;;;;;;;;;;;;2.39;100.00;99048.34;4862141;29;19959;-66
2021/12/23 07:52:43;;;;;;;;;;;;;;;2.32;100.00;99050.81;4874965;29;20227;-67
2021/12/23 07:55:10;;;;;;;;;;;;;;;2.36;100.00;99049.00;4862323;29;19955;-67
2021/12/23 07:57:39;;;;;;;;;;;;;;;2.41;100.00;99037.78;4856392;29;19963;-66
2021/12/23 08:00:07;;;;;;;;;;;;;;;2.48;100.00;99042.81;4871336;29;19977;-66
2021/12/23 08:02:40;;;;;;;;;;;;;;;2.52;100.00;99029.97;4873042;29;19962;-66
2021/12/23 08:05:08;;;;;;;;;;;;;;;2.57;100.00;99029.78;4879265;29;19953;-67
2021/12/23 08:07:35;;;;;;;;;;;;;;;2.60;100.00;99035.50;4878315;29;19957;-67
2021/12/23 08:10:03;;;;;;;;;;;;;;;2.64;100.00;99036.44;4875834;29;19970;-67
2021/12/23 08:12:30;;;;;;;;;;;;;;;2.69;100.00;99018.88;4874064;29;20349;-67
2021/12/23 08:14:57;;;;;;;;;;;;;;;2.69;100.00;99031.91;4871622;29;19974;-67
2021/12/23 08:17:32;;;;;;;;;;;;;;;2.74;100.00;99026.22;4876482;29;19958;-66
2021/12/23 08:20:00;;;;;;;;;;;;;;;2.73;100.00;99022.63;4876411;29;20004;-66
2021/12/23 08:22:27;;;;;;;;;;;;;;;2.75;100.00;99033.34;4876659;29;19978;-66
2021/12/23 08:24:54;;;;;;;;;;;;;;;2.71;100.00;99019.41;4871122;29;19962;-66
2021/12/23 08:27:25;;;;;;;;;;;;;;;2.76;100.00;99023.94;4879972;29;19957;-66
2021/12/23 08:29:53;;;;;;;;;;;;;;;2.76;100.00;99012.88;4874421;29;19956;-66
2021/12/23 08:32:21;;;;;;;;;;;;;;;2.71;100.00;99011.09;4879071;29;19968;-66
2021/12/23 08:34:48;;;;;;;;;;;;;;;2.68;100.00;99022.81;4876909;29;19955;-66
2021/12/23 08:37:15;;;;;;;;;;;;;;;2.66;100.00;99019.56;4872671;29;19960;-66
2021/12/23 08:39:44;;;;;;;;;;;;;;;2.64;100.00;99021.84;4873769;29;20266;-66
2021/12/23 08:42:11;;;;;;;;;;;;;;;2.65;100.00;99012.41;4873283;29;19955;-66
2021/12/23 08:44:40;;;;;;;;;;;;;;;2.64;100.00;99010.81;4881423;29;19960;-66
2021/12/23 08:47:08;;;;;;;;;;;;;;;2.73;100.00;99025.38;4871095;29;19960;-66
2021/12/23 08:49:36;;;;;;;;;;;;;;;2.77;100.00;99017.25;4879270;29;19970;-66
2021/12/23 08:52:04;;;;;;;;;;;;;;;2.74;100.00;99023.44;4879709;29;19959;-67
2021/12/23 08:54:32;;;;;;;;;;;;;;;2.83;100.00;99019.53;4876068;29;19962;-66
2021/12/23 08:56:59;;;;;;;;;;;;;;;2.94;100.00;99014.44;4875183;29;19966;-66
2021/12/23 08:59:26;;;;;;;;;;;;;;;3.03;100.00;99013.25;4875330;29;19955;-66
2021/12/23 09:01:55;;;;;;;;;;;;;;;3.13;100.00;99018.41;4869362;29;19969;-66
2021/12/23 09:04:22;;;;;;;;;;;;;;;3.18;100.00;99021.00;4873595;29;19958;-66
2021/12/23 09:06:50;;;;;;;;;;;;;;;3.26;100.00;99025.69;4880923;29;19953;-66
2021/12/23 09:09:17;;;;;;;;;;;;;;;3.33;100.00;99028.72;4863100;29;19960;-66
2021/12/23 09:11:46;;;;;;;;;;;;;;;3.39;100.00;99034.06;4873328;29;19968;-66
2021/12/23 09:14:13;;;;;;;;;;;;;;;3.42;100.00;99041.72;4876720;29;19957;-66
2021/12/23 09:16:40;;;;;;;;;;;;;;;3.36;100.00;99048.56;4875901;29;19970;-66
2021/12/23 09:19:09;;;;;;;;;;;;;;;3.29;100.00;99047.13;4877879;29;19964;-66
2021/12/23 09:21:37;;;;;;;;;;;;;;;3.31;100.00;99042.09;4864009;29;19975;-66
2021/12/23 09:24:04;;;;;;;;;;;;;;;3.24;100.00;99039.03;4867269;29;19984;-67
2021/12/23 09:26:36;;;;;;;;;;;;;;;3.23;100.00;99042.09;4868614;29;19962;-66
2021/12/23 09:29:13;;;;;;;;;;;;;;;3.16;100.00;99050.91;4873802;29;19964;-66
2021/12/23 09:34:27;;;;;;;;;;;;;;;3.09;100.00;99049.81;4880787;29;19961;-66
2021/12/23 09:36:54;;;;;;;;;;;;;;;3.04;100.00;99039.75;4880685;29;19958;-66
2021/12/23 09:39:22;;;;;;;;;;;;;;;2.98;100.00;99049.38;4880355;29;20227;-66
2021/12/23 09:41:49;;;;;;;;;;;;;;;3.04;100.00;99056.31;4880546;29;19984;-66
2021/12/23 09:44:17;;;;;;;;;;;;;;;3.08;100.00;99046.22;4880513;29;19988;-66
2021/12/23 09:46:44;;;;;;;;;;;;;;;3.11;100.00;99051.09;4863747;29;19964;-67
2021/12/23 09:49:12;;;;;;;;;;;;;;;3.12;100.00;99044.44;4872803;29;19957;-66
2021/12/23 09:51:40;;;;;;;;;;;;;;;3.11;100.00;99055.81;4880654;29;19953;-66
2021/12/23 09:54:08;;;;;;;;;;;;;;;3.12;100.00;99049.97;4880246;29;19947;-66
2021/12/23 09:56:38;;;;;;;;;;;;;;;3.09;100.00;99045.09;4880843;29;19952;-66
2021/12/23 09:59:09;;;;;;;;;;;;;;;3.08;100.00;99056.50;4880995;29;19951;-66
2021/12/23 10:01:36;;;;;;;;;;;;;;;3.03;100.00;99054.69;4880661;29;19968;-67
2021/12/23 10:04:04;;;;;;;;;;;;;;;3.08;100.00;99043.47;4880555;29;19959;-67
2021/12/23 10:06:32;;;;;;;;;;;;;;;3.02;100.00;99050.31;4880089;29;20660;-67
2021/12/23 10:09:00;;;;;;;;;;;;;;;3.14;100.00;99049.63;4867882;29;19961;-66
2021/12/23 10:31:27;;;;;;;;;;;;;;;3.21;100.00;99047.97;4862261;29;21637;-67
2021/12/23 10:37:22;;;;;;;;;;;;;;;3.09;100.00;99036.81;4797526;29;19959;-66
2021/12/23 10:39:49;;;;;;;;;;;;;;;3.16;100.00;99033.53;4785530;29;19958;-67
2021/12/23 10:42:19;;;;;;;;;;;;;;;3.12;100.00;99033.38;4825581;29;20262;-67
2021/12/23 10:44:57;;;;;;;;;;;;;;;3.10;100.00;99035.69;4877729;29;19986;-67
2021/12/23 10:47:40;;;;;;;;;;;;;;;3.24;100.00;99035.44;4876307;29;19968;-67
2021/12/23 10:50:20;;;;;;;;;;;;;;;3.39;100.00;99032.13;4862043;29;20242;-67
2021/12/23 10:52:56;;;;;;;;;;;;;;;3.53;100.00;99029.13;4878772;29;20559;-67
2021/12/23 10:58:24;;;;;;;;;;;;;;;3.79;100.00;99013.97;4879000;29;19965;-67
2021/12/23 11:00:49;;;;;;;;;;;;;;;4.33;100.00;98994.66;4876449;29;20357;-67
2021/12/23 11:03:30;;;;;;;;;;;;;;;4.11;100.00;98989.50;4879796;29;19984;-67
2021/12/23 11:06:16;;;;;;;;;;;;;;;4.13;100.00;98976.13;4877625;29;19949;-66
2021/12/23 11:30:59;;;;;;;;;;;;;;;3.95;100.00;98931.19;4879262;29;19953;-66
2021/12/23 11:41:17;;;;;;;;;;;;;;;4.22;100.00;98929.81;4861071;29;19966;-69
2021/12/23 11:46:19;;;;;;;;;;;;;;;4.28;100.00;98915.41;4867961;29;20656;-69
2021/12/23 11:48:51;;;;;;;;;;;;;;;4.33;100.00;98904.09;4879544;29;19956;-69
2021/12/23 11:51:28;;;;;;;;;;;;;;;4.34;100.00;98891.09;4879561;29;20341;-69
2021/12/23 11:53:56;;;;;;;;;;;;;;;4.37;100.00;98893.16;4878743;29;20341;-68
2021/12/23 11:56:24;;;;;;;;;;;;;;;4.37;100.00;98877.38;4883155;29;20403;-74
2021/12/23 11:58:56;;;;;;;;;;;;;;;4.40;100.00;98878.66;4866004;29;19958;-69
2021/12/23 12:01:26;;;;;;;;;;;;;;;4.41;100.00;98875.53;4882691;29;19972;-69
2021/12/23 12:03:58;;;;;;;;;;;;;;;4.44;100.00;98874.84;4882730;29;19958;-69
2021/12/23 12:06:30;;;;;;;;;;;;;;;4.44;100.00;98877.63;4881588;29;20267;-69
2021/12/23 12:09:16;;;;;;;;;;;;;;;4.51;100.00;98880.63;4882186;29;19962;-69
2021/12/23 12:11:48;;;;;;;;;;;;;;;4.56;100.00;98877.63;4882300;29;19967;-69
2021/12/23 12:14:34;;;;;;;;;;;;;;;4.51;100.00;98877.03;4882084;29;19955;-69
2021/12/23 12:17:20;;;;;;;;;;;;;;;4.44;100.00;98876.81;4881843;29;19957;-69
2021/12/23 12:20:10;;;;;;;;;;;;;;;4.52;100.00;98873.13;4881918;29;20366;-69
2021/12/23 12:22:56;;;;;;;;;;;;;;;4.57;100.00;98870.91;4881396;29;19983;-69
2021/12/23 12:25:23;;;;;;;;;;;;;;;4.62;100.00;98869.91;4863028;29;20258;-69
2021/12/23 12:27:56;;;;;;;;;;;;;;;4.67;100.00;98871.66;4869932;29;19961;-69
2021/12/23 12:30:44;;;;;;;;;;;;;;;4.69;100.00;98866.56;4882535;29;20389;-69
2021/12/23 12:33:34;;;;;;;;;;;;;;;4.62;100.00;98869.91;4875941;29;20011;-69
2021/12/23 12:36:04;;;;;;;;;;;;;;;4.61;100.00;98866.31;4881791;29;20355;-69
2021/12/23 12:38:34;;;;;;;;;;;;;;;4.59;100.00;98863.09;4881159;29;19958;-69
2021/12/23 12:41:18;;;;;;;;;;;;;;;4.58;100.00;98868.97;4882309;29;19959;-69
2021/12/23 12:43:53;;;;;;;;;;;;;;;4.62;100.00;98862.38;4882256;29;19948;-69
2021/12/23 12:46:33;;;;;;;;;;;;;;;4.67;100.00;98850.28;4881978;29;19964;-69
2021/12/23 12:49:08;;;;;;;;;;;;;;;4.80;100.00;98849.13;4881223;29;19964;-69
2021/12/23 12:51:39;;;;;;;;;;;;;;;4.82;100.00;98849.59;4873640;29;19968;-69
2021/12/23 12:54:08;;;;;;;;;;;;;;;4.87;100.00;98848.53;4846600;29;19971;-69
2021/12/23 12:56:36;;;;;;;;;;;;;;;4.99;100.00;98854.09;4862248;29;19959;-69
2021/12/23 12:59:06;;;;;;;;;;;;;;;5.12;100.00;98850.16;4863681;29;19967;-69
2021/12/23 13:01:37;;;;;;;;;;;;;;;5.29;100.00;98839.59;4862881;29;19960;-69
2021/12/23 13:04:06;;;;;;;;;;;;;;;5.46;100.00;98838.50;4862911;29;20635;-69
2021/12/23 13:06:37;;;;;;;;;;;;;;;5.39;100.00;98843.84;4862039;29;20249;-69
2021/12/23 13:09:27;;;;;;;;;;;;;;;5.53;100.00;98844.28;4862916;29;19951;-69
2021/12/23 13:12:28;;;;;;;;;;;;;;;5.56;100.00;98840.81;4862449;29;20415;-69
2021/12/23 13:15:20;;;;;;;;;;;;;;;5.46;100.00;98827.44;4862543;29;19964;-69
2021/12/23 13:18:14;;;;;;;;;;;;;;;5.36;100.00;98830.69;4861577;29;19954;-69
2021/12/23 13:20:54;;;;;;;;;;;;;;;5.29;100.00;98830.47;4862668;29;20244;-68
2021/12/23 13:23:22;;;;;;;;;;;;;;;5.24;100.00;98823.22;4862111;29;20277;-69
2021/12/23 13:25:49;;;;;;;;;;;;;;;5.23;100.00;98829.13;4862281;29;19965;-69
2021/12/23 13:28:22;;;;;;;;;;;;;;;5.23;100.00;98818.81;4861777;29;19951;-69
2021/12/23 13:30:50;;;;;;;;;;;;;;;5.28;100.00;98828.88;4862102;29;19964;-69
2021/12/23 13:33:17;;;;;;;;;;;;;;;5.31;100.00;98828.97;4862018;29;19970;-69
2021/12/23 13:35:45;;;;;;;;;;;;;;;5.25;100.00;98822.06;4868855;29;20368;-69
2021/12/23 13:38:31;;;;;;;;;;;;;;;5.31;100.00;98812.34;4878628;29;20253;-69
2021/12/23 13:41:12;;;;;;;;;;;;;;;5.34;100.00;98819.13;4874938;29;19948;-69
2021/12/23 13:43:39;;;;;;;;;;;;;;;5.30;100.00;98807.97;4883397;29;19995;-69
2021/12/23 13:46:08;;;;;;;;;;;;;;;5.28;100.00;98810.25;4877424;29;20060;-69
2021/12/23 13:48:48;;;;;;;;;;;;;;;5.23;100.00;98821.59;4882919;29;19956;-69
2021/12/23 13:51:17;;;;;;;;;;;;;;;5.15;100.00;98811.47;4878263;29;19971;-69
2021/12/23 13:53:44;;;;;;;;;;;;;;;5.12;100.00;98828.78;4879740;29;19957;-69
2021/12/23 13:56:12;;;;;;;;;;;;;;;5.08;100.00;98821.53;4891229;29;20001;-69
2021/12/23 13:58:40;;;;;;;;;;;;;;;4.94;100.00;98821.88;4888824;29;19961;-69
2021/12/23 14:01:07;;;;;;;;;;;;;;;4.77;100.00;98822.09;4881208;29;19969;-69
2021/12/23 14:03:34;;;;;;;;;;;;;;;4.75;100.00;98818.88;4881318;29;19980;-69
2021/12/23 14:06:02;;;;;;;;;;;;;;;4.73;100.00;98825.94;4879536;29;19960;-69
2021/12/23 14:08:30;;;;;;;;;;;;;;;4.68;100.00;98821.44;4879744;29;19957;-69
2021/12/23 14:11:00;;;;;;;;;;;;;;;4.66;100.00;98815.44;4885243;29;20370;-69
2021/12/23 14:13:27;;;;;;;;;;;;;;;4.55;100.00;98817.84;4874007;29;19955;-69
2021/12/23 14:16:05;;;;;;;;;;;;;;;4.44;100.00;98813.13;4875800;29;20518;-69
2021/12/23 14:19:00;;;;;;;;;;;;;;;4.42;100.00;98816.25;4861608;29;19953;-69
2021/12/23 14:24:15;;;;;;;;;;;;;;;4.33;100.00;98815.53;4867017;29;19983;-69
2021/12/23 14:26:42;;;;;;;;;;;;;;;4.34;100.00;98813.56;4878858;29;20253;-69
2021/12/23 14:29:14;;;;;;;;;;;;;;;4.35;100.00;98813.22;4874322;29;19960;-69
2021/12/23 14:31:48;;;;;;;;;;;;;;;4.37;100.00;98821.19;4879397;29;19980;-69
2021/12/23 14:34:17;;;;;;;;;;;;;;;4.32;100.00;98802.84;4875008;29;20028;-69
2021/12/23 14:36:49;;;;;;;;;;;;;;;4.32;100.00;98804.81;4875898;29;19963;-69
2021/12/23 14:39:26;;;;;;;;;;;;;;;4.33;100.00;98800.84;4878999;29;20257;-69
2021/12/23 14:41:58;;;;;;;;;;;;;;;4.32;100.00;98794.53;4869147;29;20256;-69
2021/12/23 14:44:27;;;;;;;;;;;;;;;4.31;100.00;98792.91;4878500;29;19987;-69
2021/12/23 14:47:15;;;;;;;;;;;;;;;4.35;100.00;98787.50;4878856;29;19957;-69
2021/12/23 14:52:17;;;;;;;;;;;;;;;4.13;100.00;98785.19;4878941;29;20463;-69
2021/12/23 14:54:48;;;;;;;;;;;;;;;4.07;100.00;98779.06;4871154;29;19959;-69
2021/12/23 14:57:17;;;;;;;;;;;;;;;4.02;100.00;98787.56;4878905;29;19956;-69
2021/12/23 14:59:46;;;;;;;;;;;;;;;4.05;100.00;98786.06;4875227;29;19958;-69
2021/12/23 15:02:16;;;;;;;;;;;;;;;4.10;100.00;98785.84;4872086;29;19956;-69
2021/12/23 15:04:58;;;;;;;;;;;;;;;4.13;100.00;98785.19;4879122;29;20596;-69
2021/12/23 15:07:43;;;;;;;;;;;;;;;4.15;100.00;98780.91;4879047;29;19964;-69
2021/12/23 15:10:10;;;;;;;;;;;;;;;4.18;100.00;98765.59;4878563;29;19960;-69
2021/12/23 15:12:38;;;;;;;;;;;;;;;4.03;100.00;98766.25;4878543;29;20340;-69
2021/12/23 15:15:07;;;;;;;;;;;;;;;3.99;100.00;98764.16;4878372;29;19956;-69
2021/12/23 15:17:52;;;;;;;;;;;;;;;3.89;100.00;98772.09;4877787;29;19952;-69
2021/12/23 15:20:30;;;;;;;;;;;;;;;3.76;100.00;98768.50;4879074;29;19961;-69
2021/12/23 15:23:01;;;;;;;;;;;;;;;3.70;100.00;98774.56;4879434;29;20269;-69
2021/12/23 15:25:35;;;;;;;;;;;;;;;3.63;100.00;98775.13;4879876;29;20280;-69
2021/12/23 15:28:04;;;;;;;;;;;;;;;3.66;100.00;98766.16;4878948;29;19951;-69
2021/12/23 15:30:33;;;;;;;;;;;;;;;3.65;100.00;98766.50;4884939;29;19971;-69
2021/12/23 15:33:01;;;;;;;;;;;;;;;3.60;100.00;98758.41;4884753;29;19960;-69
2021/12/23 15:35:30;;;;;;;;;;;;;;;3.61;100.00;98768.34;4885107;29;19959;-69
2021/12/23 15:37:59;;;;;;;;;;;;;;;3.58;100.00;98760.72;4885208;29;19959;-69
2021/12/23 15:40:29;;;;;;;;;;;;;;;3.58;100.00;98753.22;4878560;29;19965;-69
2021/12/23 15:42:57;;;;;;;;;;;;;;;3.56;100.00;98754.72;4866528;29;19990;-69
2021/12/23 15:45:25;;;;;;;;;;;;;;;3.52;100.00;98756.56;4874329;29;19985;-69
2021/12/23 15:47:56;;;;;;;;;;;;;;;3.55;100.00;98764.16;4884373;29;19952;-69
2021/12/23 15:50:27;;;;;;;;;;;;;;;3.52;100.00;98762.09;4879155;29;19963;-69
2021/12/23 15:52:58;;;;;;;;;;;;;;;3.46;100.00;98760.66;4879730;29;20618;-69
2021/12/23 15:55:27;;;;;;;;;;;;;;;3.40;100.00;98767.56;4871059;29;20338;-69
2021/12/23 15:57:54;;;;;;;;;;;;;;;3.43;100.00;98761.34;4876217;29;19960;-69
2021/12/23 16:00:21;;;;;;;;;;;;;;;3.48;100.00;98766.66;4879551;29;20250;-69
2021/12/23 16:02:51;;;;;;;;;;;;;;;3.50;100.00;98759.66;4866249;29;19957;-69
2021/12/23 16:07:47;;;;;;;;;;;;;;;3.49;100.00;98757.22;4884754;29;20232;-69
2021/12/23 16:10:15;;;;;;;;;;;;;;;3.55;100.00;98753.09;4883636;29;19959;-69
2021/12/23 16:12:42;;;;;;;;;;;;;;;3.53;100.00;98760.91;4884950;29;19957;-69
2021/12/23 16:15:11;;;;;;;;;;;;;;;3.62;100.00;98756.13;4899365;29;20349;-69
2021/12/23 16:17:40;;;;;;;;;;;;;;;3.66;100.00;98766.16;4877343;29;19960;-69
2021/12/23 16:20:07;;;;;;;;;;;;;;;3.68;100.00;98761.09;4866752;29;19954;-69
2021/12/23 16:22:35;;;;;;;;;;;;;;;3.69;100.00;98750.84;4877079;29;19978;-69
2021/12/23 16:25:03;;;;;;;;;;;;;;;3.70;100.00;98757.97;4867362;29;19981;-69
2021/12/23 16:27:31;;;;;;;;;;;;;;;3.65;100.00;98763.72;4865382;29;19962;-69
2021/12/23 16:29:58;;;;;;;;;;;;;;;3.71;100.00;98760.44;4866180;29;19957;-69
2021/12/23 16:32:33;;;;;;;;;;;;;;;3.76;100.00;98764.94;4866823;29;19961;-69
2021/12/23 16:35:01;;;;;;;;;;;;;;;3.79;100.00;98764.25;4866370;29;20341;-69
2021/12/23 16:37:29;;;;;;;;;;;;;;;3.80;100.00;98754.78;4865184;29;19955;-70
2021/12/23 16:39:56;;;;;;;;;;;;;;;3.82;100.00;98761.59;4854316;29;19968;-70
2021/12/23 16:42:26;;;;;;;;;;;;;;;3.83;100.00;98759.63;4870586;29;19949;-69
2021/12/23 16:44:54;;;;;;;;;;;;;;;3.83;100.00;98757.69;4864655;29;19970;-69
2021/12/23 16:47:21;;;;;;;;;;;;;;;3.89;100.00;98758.25;4862745;29;19965;-69
2021/12/23 16:49:49;;;;;;;;;;;;;;;3.92;100.00;98757.56;4862970;29;19949;-70
2021/12/23 16:52:16;;;;;;;;;;;;;;;3.86;100.00;98759.75;4862700;29;19958;-69
2021/12/23 16:55:41;;;;;;;;;;;;;;;3.86;100.00;98748.69;4862549;29;20242;-69
2021/12/23 16:57:34;;;;;;;;;;;;;;;3.88;100.00;98756.66;4851348;29;19961;-69
2021/12/23 17:00:04;;;;;;;;;;;;;;;3.90;100.00;98760.69;4863453;29;19964;-69
2021/12/23 17:02:32;;;;;;;;;;;;;;;3.92;100.00;98758.38;4863254;29;19956;-69
2021/12/23 17:04:59;;;;;;;;;;;;;;;3.88;100.00;98762.19;4863649;29;19972;-69
2021/12/23 17:07:27;;;;;;;;;;;;;;;3.91;100.00;98762.28;4863124;29;19949;-69
2021/12/23 17:09:54;;;;;;;;;;;;;;;3.90;100.00;98760.69;4870751;29;19960;-69
2021/12/23 17:12:21;;;;;;;;;;;;;;;3.87;100.00;98760.56;4862490;29;19957;-69
2021/12/23 17:14:49;;;;;;;;;;;;;;;3.74;100.00;98759.72;4862808;29;19962;-69
2021/12/23 17:17:16;;;;;;;;;;;;;;;3.72;100.00;98747.38;4863345;29;19950;-68
2021/12/23 17:19:58;;;;;;;;;;;;;;;3.64;100.00;98751.88;4862988;29;19956;-69
2021/12/23 17:22:26;;;;;;;;;;;;;;;3.65;100.00;98747.13;4852263;29;19977;-69
2021/12/23 17:24:55;;;;;;;;;;;;;;;3.64;100.00;98751.06;4861038;29;19932;-69
2021/12/23 17:27:24;;;;;;;;;;;;;;;3.68;100.00;98758.34;4862155;29;19939;-69
2021/12/23 17:29:52;;;;;;;;;;;;;;;3.67;100.00;98755.88;4863482;29;19985;-69
2021/12/23 17:32:20;;;;;;;;;;;;;;;3.74;100.00;98770.78;4875212;29;20328;-69
2021/12/23 17:34:48;;;;;;;;;;;;;;;3.80;100.00;98765.84;4878884;29;19972;-69
2021/12/23 17:37:16;;;;;;;;;;;;;;;3.82;100.00;98771.84;4880749;29;19956;-69
2021/12/23 17:39:44;;;;;;;;;;;;;;;3.80;100.00;98769.44;4880613;29;20247;-69
2021/12/23 17:42:11;;;;;;;;;;;;;;;3.74;100.00;98758.94;4880819;29;19963;-69
2021/12/23 17:44:39;;;;;;;;;;;;;;;3.66;100.00;98746.00;4880674;29;20061;-69
2021/12/23 17:47:07;;;;;;;;;;;;;;;3.60;100.00;98734.34;4880338;29;20228;-69
2021/12/23 17:49:34;;;;;;;;;;;;;;;3.62;100.00;98729.28;4881419;29;19952;-69
2021/12/23 17:52:03;;;;;;;;;;;;;;;3.64;100.00;98729.75;4870887;29;19956;-69
2021/12/23 17:54:37;;;;;;;;;;;;;;;3.63;100.00;98732.84;4877066;29;19956;-69
2021/12/23 17:57:05;;;;;;;;;;;;;;;3.57;100.00;98737.00;4876984;29;19963;-69
2021/12/23 17:59:32;;;;;;;;;;;;;;;3.57;100.00;98725.94;4880208;29;19954;-69
2021/12/23 18:02:00;;;;;;;;;;;;;;;3.53;100.00;98724.97;4875875;29;20264;-68
2021/12/23 18:04:27;;;;;;;;;;;;;;;3.59;100.00;98729.97;4877036;29;20394;-69
2021/12/23 18:06:56;;;;;;;;;;;;;;;3.55;100.00;98729.03;4875730;29;20261;-69
2021/12/23 18:09:23;;;;;;;;;;;;;;;3.68;100.00;98730.69;4858993;29;19966;-69
2021/12/23 18:11:51;;;;;;;;;;;;;;;3.66;100.00;98737.69;4880570;29;20206;-69
2021/12/23 18:14:18;;;;;;;;;;;;;;;3.60;100.00;98739.88;4877382;29;19979;-69
2021/12/23 18:16:45;;;;;;;;;;;;;;;3.63;100.00;98741.13;4879549;29;20269;-69
2021/12/23 18:19:13;;;;;;;;;;;;;;;3.56;100.00;98738.13;4874080;29;19961;-70
2021/12/23 18:21:41;;;;;;;;;;;;;;;3.54;100.00;98729.38;4877744;29;20265;-69
2021/12/23 18:24:09;;;;;;;;;;;;;;;3.55;100.00;98733.75;4879558;29;20255;-69
2021/12/23 18:26:36;;;;;;;;;;;;;;;3.50;100.00;98732.00;4863667;29;19962;-69
2021/12/23 18:29:05;;;;;;;;;;;;;;;3.51;100.00;98724.53;4882544;29;19970;-69
2021/12/23 18:31:33;;;;;;;;;;;;;;;3.47;100.00;98734.66;4885384;29;19953;-69
2021/12/23 18:34:01;;;;;;;;;;;;;;;3.47;100.00;98724.41;4878280;29;19956;-69
2021/12/23 18:36:35;;;;;;;;;;;;;;;3.43;100.00;98728.97;4888816;29;19960;-69
2021/12/23 18:39:11;;;;;;;;;;;;;;;3.46;100.00;98730.25;4880357;29;19954;-69
2021/12/23 18:41:39;;;;;;;;;;;;;;;3.43;100.00;98739.22;4879574;29;19953;-69
2021/12/23 18:44:08;;;;;;;;;;;;;;;3.41;100.00;98731.28;4879432;29;19969;-69
2021/12/23 18:46:35;;;;;;;;;;;;;;;3.41;100.00;98736.00;4879904;29;19968;-69
2021/12/23 18:49:03;;;;;;;;;;;;;;;3.52;100.00;98720.63;4874457;29;19963;-69
2021/12/23 18:51:33;;;;;;;;;;;;;;;3.50;100.00;98720.94;4875528;29;20434;-69
2021/12/23 18:54:02;;;;;;;;;;;;;;;3.45;100.00;98723.91;4877884;29;20281;-69
2021/12/23 18:56:30;;;;;;;;;;;;;;;3.44;100.00;98715.97;4876357;29;20352;-69
2021/12/23 18:58:57;;;;;;;;;;;;;;;3.49;100.00;98710.22;4879636;29;19928;-69
2021/12/23 19:01:29;;;;;;;;;;;;;;;3.47;100.00;98696.75;4878605;29;20248;-69
2021/12/23 19:04:31;;;;;;;;;;;;;;;3.46;100.00;98702.63;4873433;29;19928;-69
2021/12/23 19:06:47;;;;;;;;;;;;;;;3.50;100.00;98707.13;4874643;29;19960;-69
2021/12/23 19:09:15;;;;;;;;;;;;;;;3.52;100.00;98699.28;4871911;29;19967;-69
2021/12/23 19:11:43;;;;;;;;;;;;;;;3.51;100.00;98700.44;4860849;29;19928;-69
2021/12/23 19:14:11;;;;;;;;;;;;;;;3.51;100.00;98703.22;4868948;29;19967;-69
2021/12/23 19:16:40;;;;;;;;;;;;;;;3.52;100.00;98698.50;4876645;29;19956;-69
2021/12/23 19:19:07;;;;;;;;;;;;;;;3.55;100.00;98708.84;4871709;29;19965;-69
2021/12/23 19:21:36;;;;;;;;;;;;;;;3.54;100.00;98697.00;4878762;29;20043;-69
2021/12/23 19:24:04;;;;;;;;;;;;;;;3.57;100.00;98695.53;4864410;29;19968;-69
2021/12/23 19:26:32;;;;;;;;;;;;;;;3.62;100.00;98692.53;4878439;29;19967;-69
2021/12/23 19:29:00;;;;;;;;;;;;;;;3.63;100.00;98694.94;4878501;29;19953;-69
2021/12/23 19:31:30;;;;;;;;;;;;;;;3.63;100.00;98696.91;4875717;29;19959;-69
2021/12/23 19:33:58;;;;;;;;;;;;;;;3.57;100.00;98706.59;4876720;29;19978;-69
2021/12/23 19:36:26;;;;;;;;;;;;;;;3.54;100.00;98710.03;4878369;29;19960;-69